Wetterdaten der Wetterstation 41540 Dormagen

Letzte Wetterlage 01.07.2015 22:44
Wetterdiagramm
Tabellarische Darstellung
Datum Temperatur Windchill Feuchte Luftdruck Windrichtung Windstärke Niederschlag
01.07.2015 22:49 29,2 °C 29,2 °C 45 % 1017,5 hPa 90 1.7 0 l/m²
01.07.2015 22:44 29,3 °C 29,3 °C 45 % 1017,5 hPa 135 1.4 0 l/m²
01.07.2015 22:39 29,5 °C 29,5 °C 44 % 1017,3 hPa 180 2.0 0 l/m²
01.07.2015 22:34 29,5 °C 29,3 °C 44 % 1017,4 hPa 135 2.4 0 l/m²
01.07.2015 22:29 29,7 °C 29,5 °C 44 % 1017,3 hPa 135 2.4 0 l/m²
01.07.2015 22:24 29,8 °C 29,8 °C 44 % 1017,2 hPa 180 2.0 0 l/m²
01.07.2015 22:19 29,9 °C 29,9 °C 44 % 1017,3 hPa 45 2.0 0 l/m²
01.07.2015 22:14 30,0 °C 30,0 °C 43 % 1017,2 hPa 135 1.4 0 l/m²
01.07.2015 22:09 30,2 °C 30,2 °C 43 % 1017,2 hPa 90 1.7 0 l/m²
01.07.2015 22:04 30,5 °C 30,5 °C 43 % 1017,2 hPa 113 1.7 0 l/m²
01.07.2015 21:59 30,5 °C 30,3 °C 42 % 1017,1 hPa 203 2.4 0 l/m²
01.07.2015 21:54 30,6 °C 30,6 °C 41 % 1017,1 hPa 225 1.4 0 l/m²
01.07.2015 21:49 30,8 °C 30,6 °C 41 % 1016,8 hPa 45 2.7 0 l/m²
01.07.2015 21:44 31,0 °C 30,8 °C 39 % 1017,0 hPa 180 2.7 0 l/m²
01.07.2015 21:39 31,2 °C 31,2 °C 38 % 1016,8 hPa 180 0.3 0 l/m²
01.07.2015 21:34 31,4 °C 31,4 °C 38 % 1016,8 hPa 0.7 0 l/m²
01.07.2015 21:29 31,6 °C 31,6 °C 37 % 1016,8 hPa 135 1.4 0 l/m²
01.07.2015 21:24 31,8 °C 31,8 °C 37 % 1016,8 hPa 90 0.7 0 l/m²
01.07.2015 21:19 32,1 °C 32,1 °C 35 % 1016,8 hPa 180 1.7 0 l/m²
01.07.2015 21:09 32,5 °C 32,5 °C 34 % 1016,5 hPa 135 2.4 0 l/m²
01.07.2015 21:04 32,7 °C 32,7 °C 34 % 1016,7 hPa 225 1.4 0 l/m²
01.07.2015 20:59 32,8 °C 32,8 °C 34 % 1016,7 hPa 135 1.4 0 l/m²
01.07.2015 20:54 32,9 °C 32,9 °C 33 % 1016,7 hPa 45 1.4 0 l/m²
01.07.2015 20:49 33,1 °C 33,1 °C 36 % 1016,6 hPa 90 1.7 0 l/m²
01.07.2015 20:44 33,2 °C 33,2 °C 35 % 1016,8 hPa 45 3.7 0 l/m²
Neue Wetterwarnung

Neue Niederschlagsmeldung
Neue Meldung
Regen Liveticker
    sehr starker Regen/Gewitter
    starker Regen/Gewitter
    mäßiger bis starker Regen
    mäßiger Regen
    leichter bis mäßiger Regen
    kein Regen